Time;durP1;ratioP1;P1;durP2;ratioP2;P2;SDS_P1;SDS_P2;PMS_P1;PMS_P2;Temp;Humidity;BMP_temperature;BMP_pressure;BME280_temperature;BME280_humidity;BME280_pressure;Samples;Min_cycle;Max_cycle;Signal;HPM_P1;HPM_P2
2022/06/07 00:00:25;;;;;;;4.78;1.63;;;;;;;;;;5095658;28;20488;-64
2022/06/07 00:02:51;;;;;;;6.43;1.70;;;;;;;;;;5095689;28;20028;-64
2022/06/07 00:05:18;;;;;;;3.80;1.30;;;;;;;;;;5095269;28;20047;-64
2022/06/07 00:07:44;;;;;;;1.95;1.33;;;;;;;;;;5095083;28;20067;-64
2022/06/07 00:10:10;;;;;;;2.67;1.52;;;;;;;;;;5095285;28;20037;-64
2022/06/07 00:12:36;;;;;;;2.85;1.42;;;;;;;;;;5095556;28;20381;-64
2022/06/07 00:15:02;;;;;;;3.50;1.50;;;;;;;;;;5095302;28;20104;-64
2022/06/07 00:17:28;;;;;;;3.13;1.33;;;;;;;;;;5095218;28;20457;-63
2022/06/07 00:19:54;;;;;;;3.00;1.50;;;;;;;;;;5095211;28;20496;-67
2022/06/07 00:22:20;;;;;;;4.25;1.55;;;;;;;;;;5095427;28;20044;-67
2022/06/07 00:24:46;;;;;;;5.68;1.52;;;;;;;;;;5095181;28;20051;-64
2022/06/07 00:27:13;;;;;;;3.20;1.45;;;;;;;;;;5095299;28;20036;-64
2022/06/07 00:29:40;;;;;;;3.53;1.30;;;;;;;;;;5095214;28;20060;-64
2022/06/07 00:32:08;;;;;;;2.90;1.27;;;;;;;;;;5095005;28;20036;-64
2022/06/07 00:34:34;;;;;;;2.63;1.55;;;;;;;;;;5094847;28;20028;-65
2022/06/07 00:37:00;;;;;;;1.58;1.02;;;;;;;;;;5094935;28;20048;-64
2022/06/07 00:39:27;;;;;;;4.05;1.40;;;;;;;;;;5095119;28;20035;-64
2022/06/07 00:41:53;;;;;;;3.45;1.80;;;;;;;;;;5094931;28;20035;-64
2022/06/07 00:44:22;;;;;;;3.47;1.63;;;;;;;;;;5094665;28;20052;-64
2022/06/07 00:47:00;;;;;;;2.70;1.33;;;;;;;;;;5094790;28;20024;-64
2022/06/07 00:49:26;;;;;;;3.17;1.60;;;;;;;;;;5094524;28;20044;-64
2022/06/07 00:51:53;;;;;;;2.78;1.40;;;;;;;;;;5094761;28;20036;-64
2022/06/07 00:54:20;;;;;;;3.22;1.60;;;;;;;;;;5094554;28;20028;-64
2022/06/07 00:56:46;;;;;;;2.35;1.38;;;;;;;;;;5094765;28;20111;-64
2022/06/07 00:59:12;;;;;;;5.07;1.52;;;;;;;;;;5091816;28;20079;-64
2022/06/07 01:01:38;;;;;;;3.75;1.23;;;;;;;;;;5091748;28;20385;-65
2022/06/07 01:04:04;;;;;;;4.07;1.50;;;;;;;;;;5091896;28;20094;-67
2022/06/07 01:11:59;;;;;;;3.00;1.50;;;;;;;;;;5094550;28;20035;-67
2022/06/07 01:14:25;;;;;;;2.78;1.42;;;;;;;;;;5093843;28;20036;-64
2022/06/07 01:16:52;;;;;;;3.08;1.20;;;;;;;;;;5094025;28;20106;-64
2022/06/07 01:19:18;;;;;;;4.60;1.20;;;;;;;;;;5094089;28;20487;-64
2022/06/07 01:21:45;;;;;;;2.35;1.10;;;;;;;;;;5093982;28;20492;-64
2022/06/07 01:24:12;;;;;;;4.20;1.38;;;;;;;;;;5093651;28;20082;-67
2022/06/07 01:26:39;;;;;;;3.17;1.40;;;;;;;;;;5093985;28;20032;-64
2022/06/07 01:29:05;;;;;;;8.38;1.40;;;;;;;;;;5093444;28;20028;-64
2022/06/07 01:31:31;;;;;;;2.67;1.40;;;;;;;;;;5093610;28;20205;-64
2022/06/07 01:33:57;;;;;;;5.38;1.67;;;;;;;;;;5093672;28;20040;-65
2022/06/07 01:36:23;;;;;;;3.70;1.50;;;;;;;;;;5093712;28;20024;-66
2022/06/07 01:41:53;;;;;;;4.00;1.40;;;;;;;;;;5093537;28;20062;-66
2022/06/07 01:41:54;;;;;;;4.88;1.50;;;;;;;;;;5093823;28;20028;-67
2022/06/07 01:44:21;;;;;;;3.20;1.60;;;;;;;;;;5093724;28;20032;-66
2022/06/07 01:46:47;;;;;;;1.75;1.50;;;;;;;;;;5093724;28;20043;-66
2022/06/07 01:49:13;;;;;;;3.30;1.40;;;;;;;;;;5093552;28;20024;-64
2022/06/07 01:51:39;;;;;;;3.10;1.70;;;;;;;;;;5093372;28;20502;-64
2022/06/07 01:54:05;;;;;;;1.85;1.27;;;;;;;;;;5093800;28;20032;-64
2022/06/07 01:56:31;;;;;;;2.05;1.40;;;;;;;;;;5093941;28;20032;-64
2022/06/07 01:58:57;;;;;;;3.97;1.42;;;;;;;;;;5093474;28;20085;-66
2022/06/07 02:01:23;;;;;;;3.72;1.45;;;;;;;;;;5093715;28;20036;-65
2022/06/07 02:03:49;;;;;;;3.20;1.40;;;;;;;;;;5093415;28;20545;-64
2022/06/07 02:06:16;;;;;;;2.28;1.15;;;;;;;;;;5093424;28;20511;-65
2022/06/07 02:08:42;;;;;;;5.05;1.50;;;;;;;;;;5093326;28;20400;-64
2022/06/07 02:11:09;;;;;;;2.85;1.63;;;;;;;;;;5093457;28;20044;-64
2022/06/07 02:13:36;;;;;;;2.80;1.40;;;;;;;;;;5093294;28;20374;-65
2022/06/07 02:16:02;;;;;;;3.47;1.90;;;;;;;;;;5093386;28;20043;-65
2022/06/07 02:18:28;;;;;;;5.03;1.42;;;;;;;;;;5093018;28;20436;-66
2022/06/07 02:20:56;;;;;;;5.68;1.40;;;;;;;;;;5093206;28;20088;-65
2022/06/07 02:23:23;;;;;;;2.58;1.30;;;;;;;;;;5093227;28;20040;-65
2022/06/07 02:25:50;;;;;;;6.28;1.27;;;;;;;;;;5092977;28;20408;-64
2022/06/07 02:28:17;;;;;;;4.00;1.58;;;;;;;;;;5092980;28;20488;-64
2022/06/07 02:30:44;;;;;;;1.92;1.40;;;;;;;;;;5092950;28;20124;-64
2022/06/07 02:33:10;;;;;;;4.43;1.45;;;;;;;;;;5093167;28;20361;-65
2022/06/07 02:35:39;;;;;;;2.38;1.38;;;;;;;;;;5093029;28;20487;-67
2022/06/07 02:38:05;;;;;;;3.35;1.60;;;;;;;;;;5092900;28;20052;-64
2022/06/07 02:40:31;;;;;;;3.30;1.67;;;;;;;;;;5092958;28;20481;-64
2022/06/07 02:42:57;;;;;;;2.45;1.48;;;;;;;;;;5095618;28;20036;-64
2022/06/07 02:45:24;;;;;;;2.15;1.45;;;;;;;;;;5097069;28;20400;-64
2022/06/07 02:47:50;;;;;;;6.00;1.50;;;;;;;;;;5097231;28;20396;-67
2022/06/07 02:50:16;;;;;;;2.28;1.40;;;;;;;;;;5097316;28;20032;-67
2022/06/07 02:52:42;;;;;;;2.70;1.50;;;;;;;;;;5096778;28;20033;-64
2022/06/07 02:55:09;;;;;;;2.63;1.40;;;;;;;;;;5097232;28;20039;-64
2022/06/07 02:57:35;;;;;;;2.28;1.55;;;;;;;;;;5097176;28;20085;-64
2022/06/07 03:00:01;;;;;;;2.80;1.40;;;;;;;;;;5096952;28;20431;-64
2022/06/07 03:02:27;;;;;;;4.22;1.38;;;;;;;;;;5096852;28;20036;-64
2022/06/07 03:04:53;;;;;;;3.60;1.60;;;;;;;;;;5096644;28;20076;-64
2022/06/07 03:07:19;;;;;;;3.63;1.40;;;;;;;;;;5096803;28;20028;-64
2022/06/07 03:09:45;;;;;;;5.03;1.58;;;;;;;;;;5097033;28;20036;-64
2022/06/07 03:12:11;;;;;;;4.65;1.50;;;;;;;;;;5096821;28;20032;-64
2022/06/07 03:14:37;;;;;;;2.15;1.45;;;;;;;;;;5096833;28;20100;-64
2022/06/07 03:17:04;;;;;;;2.83;1.63;;;;;;;;;;5096564;28;20032;-64
2022/06/07 03:19:30;;;;;;;1.80;1.30;;;;;;;;;;5096343;28;20062;-64
2022/06/07 03:21:56;;;;;;;4.90;1.60;;;;;;;;;;5096643;28;20032;-64
2022/06/07 03:24:22;;;;;;;2.13;1.40;;;;;;;;;;5096470;28;20040;-66
2022/06/07 03:26:48;;;;;;;1.83;1.30;;;;;;;;;;5096383;28;20038;-66
2022/06/07 03:29:14;;;;;;;2.50;1.63;;;;;;;;;;5096320;28;20081;-64
2022/06/07 03:31:41;;;;;;;4.00;1.60;;;;;;;;;;5095901;28;20090;-64
2022/06/07 03:34:07;;;;;;;2.15;1.50;;;;;;;;;;5096234;28;20036;-64
2022/06/07 03:36:33;;;;;;;9.90;1.73;;;;;;;;;;5096238;28;20040;-64
2022/06/07 03:39:00;;;;;;;1.55;1.25;;;;;;;;;;5096148;28;20055;-64
2022/06/07 03:41:27;;;;;;;2.50;1.50;;;;;;;;;;5096212;28;20032;-64
2022/06/07 03:43:53;;;;;;;2.70;1.70;;;;;;;;;;5096011;28;20056;-66
2022/06/07 03:46:21;;;;;;;3.35;1.77;;;;;;;;;;5095597;28;20036;-64
2022/06/07 03:48:48;;;;;;;5.28;1.67;;;;;;;;;;5095907;28;20097;-64
2022/06/07 03:51:15;;;;;;;2.08;1.70;;;;;;;;;;5096171;28;20032;-64
2022/06/07 03:53:41;;;;;;;3.40;1.80;;;;;;;;;;5094881;28;20028;-64
2022/06/07 03:56:07;;;;;;;4.03;2.38;;;;;;;;;;5095696;28;20043;-64
2022/06/07 03:58:34;;;;;;;2.05;1.55;;;;;;;;;;5095796;28;20032;-67
2022/06/07 04:01:01;;;;;;;2.83;1.77;;;;;;;;;;5095585;28;20111;-64
2022/06/07 04:03:28;;;;;;;2.35;1.77;;;;;;;;;;5095585;28;20040;-64
2022/06/07 04:05:54;;;;;;;5.78;1.80;;;;;;;;;;5095417;28;20417;-65
2022/06/07 04:08:21;;;;;;;3.88;2.00;;;;;;;;;;5095547;28;20111;-63
2022/06/07 04:10:58;;;;;;;2.78;2.03;;;;;;;;;;5095476;28;20040;-64
2022/06/07 04:13:26;;;;;;;6.30;1.80;;;;;;;;;;5095430;28;20058;-64
2022/06/07 04:15:52;;;;;;;4.43;1.80;;;;;;;;;;5093260;28;20043;-64
2022/06/07 04:18:18;;;;;;;5.75;1.80;;;;;;;;;;5094497;28;20067;-65
2022/06/07 04:20:44;;;;;;;5.20;1.88;;;;;;;;;;5094105;28;20502;-65
2022/06/07 04:23:14;;;;;;;3.45;1.75;;;;;;;;;;5092744;28;20059;-65
2022/06/07 04:25:41;;;;;;;3.55;1.88;;;;;;;;;;5094119;28;20047;-64
2022/06/07 04:28:07;;;;;;;6.95;2.00;;;;;;;;;;5094792;28;20036;-64
2022/06/07 04:30:33;;;;;;;3.42;1.45;;;;;;;;;;5095356;28;20063;-64
2022/06/07 04:32:59;;;;;;;7.28;2.17;;;;;;;;;;5095036;28;20056;-67
2022/06/07 04:35:26;;;;;;;5.80;1.80;;;;;;;;;;5094987;28;20429;-65
2022/06/07 04:37:53;;;;;;;9.00;1.58;;;;;;;;;;5093991;28;20416;-63
2022/06/07 04:40:19;;;;;;;14.25;2.10;;;;;;;;;;5092364;28;20072;-65
2022/06/07 04:42:45;;;;;;;4.85;1.98;;;;;;;;;;5093293;28;20043;-63
2022/06/07 04:45:14;;;;;;;6.97;2.00;;;;;;;;;;5093562;28;20054;-63
2022/06/07 04:47:40;;;;;;;4.97;1.92;;;;;;;;;;5094770;28;20032;-63
2022/06/07 04:50:07;;;;;;;6.25;1.80;;;;;;;;;;5093556;28;20047;-63
2022/06/07 04:52:33;;;;;;;7.68;1.70;;;;;;;;;;5094881;28;20027;-63
2022/06/07 04:54:59;;;;;;;10.23;1.85;;;;;;;;;;5094502;28;20040;-63
2022/06/07 04:57:25;;;;;;;2.22;1.50;;;;;;;;;;5094526;28;20056;-63
2022/06/07 04:59:51;;;;;;;5.05;1.85;;;;;;;;;;5094111;28;20105;-63
2022/06/07 05:02:17;;;;;;;4.38;1.63;;;;;;;;;;5094411;28;20421;-63
2022/06/07 05:04:43;;;;;;;2.22;1.55;;;;;;;;;;5093321;28;20481;-63
2022/06/07 05:07:09;;;;;;;2.65;1.67;;;;;;;;;;5094458;28;20031;-63
2022/06/07 05:09:35;;;;;;;3.78;1.60;;;;;;;;;;5094273;28;20037;-63
2022/06/07 05:12:01;;;;;;;3.05;1.60;;;;;;;;;;5094491;28;20032;-63
2022/06/07 05:14:27;;;;;;;4.18;1.50;;;;;;;;;;5094282;28;20085;-63
2022/06/07 05:16:53;;;;;;;3.08;1.58;;;;;;;;;;5094078;28;20070;-63
2022/06/07 05:19:20;;;;;;;4.25;1.52;;;;;;;;;;5094319;28;20461;-65
2022/06/07 05:21:46;;;;;;;5.10;1.40;;;;;;;;;;5094182;28;20481;-63
2022/06/07 05:24:12;;;;;;;2.67;1.50;;;;;;;;;;5094191;28;20123;-63
2022/06/07 05:26:41;;;;;;;3.22;1.45;;;;;;;;;;5094320;28;20043;-63
2022/06/07 05:29:15;;;;;;;3.33;1.55;;;;;;;;;;5094165;28;20048;-63
2022/06/07 05:31:41;;;;;;;4.15;1.50;;;;;;;;;;5093851;28;20035;-64
2022/06/07 05:34:08;;;;;;;2.28;1.60;;;;;;;;;;5093840;28;20043;-63
2022/06/07 05:36:34;;;;;;;2.25;1.60;;;;;;;;;;5093964;28;20391;-63
2022/06/07 05:39:03;;;;;;;7.65;1.40;;;;;;;;;;5093923;28;20072;-63
2022/06/07 05:41:29;;;;;;;2.60;1.33;;;;;;;;;;5093744;28;20036;-63
2022/06/07 05:43:55;;;;;;;3.35;1.40;;;;;;;;;;5093763;28;20059;-63
2022/06/07 05:46:21;;;;;;;2.90;1.80;;;;;;;;;;5093395;28;20473;-65
2022/06/07 05:48:47;;;;;;;4.38;1.67;;;;;;;;;;5093711;28;20082;-66
2022/06/07 05:51:14;;;;;;;2.78;1.58;;;;;;;;;;5093507;28;20040;-64
2022/06/07 05:53:40;;;;;;;6.03;1.60;;;;;;;;;;5093618;28;20032;-67
2022/06/07 05:56:10;;;;;;;4.50;1.77;;;;;;;;;;5093927;28;20036;-67
2022/06/07 05:58:36;;;;;;;3.65;1.50;;;;;;;;;;5093552;28;20044;-63
2022/06/07 06:01:02;;;;;;;3.95;1.67;;;;;;;;;;5093622;28;20409;-63
2022/06/07 06:03:28;;;;;;;3.75;1.70;;;;;;;;;;5093397;28;20448;-63
2022/06/07 06:05:54;;;;;;;6.45;1.50;;;;;;;;;;5093417;28;20492;-63
2022/06/07 06:11:07;;;;;;;5.15;1.85;;;;;;;;;;5093208;28;20097;-67
2022/06/07 06:13:33;;;;;;;4.20;1.38;;;;;;;;;;5092792;28;20103;-67
2022/06/07 06:16:03;;;;;;;3.67;1.70;;;;;;;;;;5092742;28;20028;-68
2022/06/07 06:18:29;;;;;;;8.85;1.30;;;;;;;;;;5088004;28;20123;-68
2022/06/07 06:20:55;;;;;;;4.32;1.30;;;;;;;;;;5092900;28;20085;-68
2022/06/07 06:23:21;;;;;;;4.15;1.20;;;;;;;;;;5093039;28;20105;-68
2022/06/07 06:25:47;;;;;;;2.33;1.20;;;;;;;;;;5092550;28;20048;-68
2022/06/07 06:28:13;;;;;;;12.00;1.48;;;;;;;;;;5092138;28;20028;-62
2022/06/07 06:30:43;;;;;;;2.97;1.33;;;;;;;;;;5091049;28;20036;-64
2022/06/07 06:33:09;;;;;;;5.05;1.23;;;;;;;;;;5089252;28;20059;-64
2022/06/07 06:35:35;;;;;;;3.97;1.13;;;;;;;;;;5092532;28;20039;-69
2022/06/07 06:38:01;;;;;;;4.78;1.27;;;;;;;;;;5092102;28;20048;-63
2022/06/07 06:40:27;;;;;;;6.95;1.55;;;;;;;;;;5091884;28;20089;-63
2022/06/07 06:42:53;;;;;;;23.55;1.90;;;;;;;;;;5092465;28;20036;-67
2022/06/07 06:45:19;;;;;;;14.85;2.42;;;;;;;;;;5092126;28;20044;-63
2022/06/07 06:47:45;;;;;;;9.38;1.60;;;;;;;;;;5091544;28;20028;-63
2022/06/07 06:50:13;;;;;;;4.10;1.20;;;;;;;;;;5092173;28;20040;-64
2022/06/07 06:52:39;;;;;;;2.80;0.95;;;;;;;;;;5091939;28;20484;-63
2022/06/07 06:55:06;;;;;;;4.25;1.10;;;;;;;;;;5092095;28;20508;-64
2022/06/07 06:57:32;;;;;;;1.60;1.05;;;;;;;;;;5091716;28;20025;-64
2022/06/07 06:59:58;;;;;;;19.48;2.53;;;;;;;;;;5091669;28;20032;-67
2022/06/07 07:02:24;;;;;;;6.72;1.60;;;;;;;;;;5091423;28;20107;-63
2022/06/07 07:04:50;;;;;;;2.75;1.10;;;;;;;;;;5092077;28;20434;-63
2022/06/07 07:07:16;;;;;;;7.43;1.20;;;;;;;;;;5092284;28;20361;-66
2022/06/07 07:09:42;;;;;;;8.40;1.27;;;;;;;;;;5092187;28;20032;-66
2022/06/07 07:12:10;;;;;;;5.00;1.15;;;;;;;;;;5092208;28;20028;-63
2022/06/07 07:14:36;;;;;;;5.32;1.38;;;;;;;;;;5091990;28;20032;-63
2022/06/07 07:17:02;;;;;;;6.45;1.30;;;;;;;;;;5092091;28;20028;-62
2022/06/07 07:19:28;;;;;;;6.82;1.30;;;;;;;;;;5091795;28;20171;-63
2022/06/07 07:21:55;;;;;;;6.50;1.45;;;;;;;;;;5089004;28;20078;-67
2022/06/07 07:24:22;;;;;;;4.85;1.02;;;;;;;;;;5091566;28;20028;-67
2022/06/07 07:26:49;;;;;;;2.38;1.00;;;;;;;;;;5090756;28;20111;-67
2022/06/07 07:29:18;;;;;;;5.47;1.23;;;;;;;;;;5091678;28;20046;-67
2022/06/07 07:31:44;;;;;;;5.15;1.10;;;;;;;;;;5093740;28;20396;-63
2022/06/07 07:34:14;;;;;;;2.00;1.05;;;;;;;;;;5095277;28;20028;-63
2022/06/07 07:36:43;;;;;;;5.25;1.17;;;;;;;;;;5095052;28;20040;-63
2022/06/07 07:39:09;;;;;;;3.65;1.08;;;;;;;;;;5095600;28;20044;-63
2022/06/07 07:41:36;;;;;;;4.53;1.10;;;;;;;;;;5095456;28;20515;-66
2022/06/07 07:44:03;;;;;;;1.55;1.10;;;;;;;;;;5095884;28;20029;-68
2022/06/07 07:46:31;;;;;;;2.25;1.10;;;;;;;;;;5094823;28;20047;-63
2022/06/07 07:48:57;;;;;;;3.58;1.15;;;;;;;;;;5094677;28;20097;-65
2022/06/07 07:51:29;;;;;;;4.78;1.10;;;;;;;;;;5094642;28;20068;-63
2022/06/07 07:53:56;;;;;;;1.65;1.20;;;;;;;;;;5095380;28;20493;-63
2022/06/07 07:56:23;;;;;;;5.90;1.30;;;;;;;;;;5094894;28;20039;-63
2022/06/07 07:58:49;;;;;;;5.95;1.23;;;;;;;;;;5094882;28;20082;-67
2022/06/07 08:01:16;;;;;;;3.13;1.20;;;;;;;;;;5095158;28;20492;-63
2022/06/07 08:03:43;;;;;;;2.53;1.10;;;;;;;;;;5095208;28;20074;-68
2022/06/07 08:06:10;;;;;;;3.88;1.17;;;;;;;;;;5094793;28;20040;-66
2022/06/07 08:08:36;;;;;;;2.80;1.20;;;;;;;;;;5092222;28;20074;-63
2022/06/07 08:11:03;;;;;;;12.02;1.40;;;;;;;;;;5094481;28;20077;-63
2022/06/07 08:13:29;;;;;;;3.22;1.00;;;;;;;;;;5094492;28;20094;-67
2022/06/07 08:15:56;;;;;;;3.05;1.10;;;;;;;;;;5091706;28;20400;-69
2022/06/07 08:18:25;;;;;;;1.92;1.25;;;;;;;;;;5093959;28;20036;-63
2022/06/07 08:20:56;;;;;;;1.55;0.90;;;;;;;;;;5094959;28;20028;-62
2022/06/07 08:23:22;;;;;;;3.25;0.90;;;;;;;;;;5095368;28;20445;-63
2022/06/07 08:25:48;;;;;;;3.78;1.00;;;;;;;;;;5094256;28;20093;-64
2022/06/07 08:28:14;;;;;;;4.65;1.00;;;;;;;;;;5094612;28;20392;-63
2022/06/07 08:30:44;;;;;;;3.22;0.75;;;;;;;;;;5095031;28;20506;-65
2022/06/07 08:38:39;;;;;;;5.32;0.93;;;;;;;;;;5094422;28;20105;-64
2022/06/07 08:41:06;;;;;;;4.35;1.00;;;;;;;;;;5094320;28;20115;-64
2022/06/07 08:43:32;;;;;;;4.03;0.90;;;;;;;;;;5094989;28;20035;-63
2022/06/07 08:45:58;;;;;;;2.55;0.88;;;;;;;;;;5094710;28;20496;-64
2022/06/07 08:48:26;;;;;;;3.72;1.20;;;;;;;;;;5094387;28;20028;-64
2022/06/07 08:51:05;;;;;;;6.05;1.00;;;;;;;;;;5094580;28;20028;-67
2022/06/07 08:53:34;;;;;;;2.25;0.80;;;;;;;;;;5094734;28;20112;-64
2022/06/07 08:56:01;;;;;;;2.50;1.05;;;;;;;;;;5094607;28;20043;-65
2022/06/07 08:58:36;;;;;;;4.05;1.20;;;;;;;;;;5094791;28;20032;-64
2022/06/07 09:01:12;;;;;;;2.00;1.02;;;;;;;;;;5094498;28;20353;-64
2022/06/07 09:03:53;;;;;;;4.45;1.05;;;;;;;;;;5094367;28;20040;-63
2022/06/07 09:06:22;;;;;;;4.70;1.00;;;;;;;;;;5093788;28;20120;-63
2022/06/07 09:08:58;;;;;;;6.00;1.10;;;;;;;;;;5094441;28;20032;-62
2022/06/07 09:14:23;;;;;;;4.15;1.45;;;;;;;;;;5094491;28;20043;-64
2022/06/07 09:16:49;;;;;;;2.70;1.10;;;;;;;;;;5094070;28;20484;-64
2022/06/07 09:19:17;;;;;;;3.13;1.13;;;;;;;;;;5094024;28;20374;-64
2022/06/07 09:21:45;;;;;;;3.72;1.13;;;;;;;;;;5093578;28;20036;-64
2022/06/07 09:24:22;;;;;;;6.53;1.02;;;;;;;;;;5091013;28;20062;-64
2022/06/07 09:26:48;;;;;;;15.02;1.65;;;;;;;;;;5093576;28;20058;-64
2022/06/07 09:29:16;;;;;;;10.43;1.58;;;;;;;;;;5093962;28;20047;-63
2022/06/07 09:31:43;;;;;;;3.97;1.10;;;;;;;;;;5094334;28;20028;-64
2022/06/07 09:34:17;;;;;;;18.17;2.05;;;;;;;;;;5094028;28;20028;-64
2022/06/07 09:36:47;;;;;;;9.75;1.42;;;;;;;;;;5093433;28;20071;-64
2022/06/07 09:39:20;;;;;;;3.15;1.10;;;;;;;;;;5093674;28;20040;-64
2022/06/07 09:41:59;;;;;;;3.47;1.30;;;;;;;;;;5093760;28;20066;-64
2022/06/07 09:44:26;;;;;;;2.67;1.30;;;;;;;;;;5093663;28;20484;-64
2022/06/07 09:47:05;;;;;;;3.30;1.10;;;;;;;;;;5093664;28;20492;-64
2022/06/07 09:49:31;;;;;;;4.10;1.08;;;;;;;;;;5093391;28;20032;-64
2022/06/07 09:52:04;;;;;;;2.17;1.08;;;;;;;;;;5093207;28;20040;-64
2022/06/07 09:54:30;;;;;;;3.72;1.02;;;;;;;;;;5093406;28;20024;-64
2022/06/07 09:56:56;;;;;;;1.77;1.10;;;;;;;;;;5093607;28;20028;-66
2022/06/07 09:59:32;;;;;;;5.32;1.33;;;;;;;;;;5093438;28;20111;-68
2022/06/07 10:02:17;;;;;;;2.20;1.20;;;;;;;;;;5093695;28;20036;-64
2022/06/07 10:05:04;;;;;;;4.85;1.25;;;;;;;;;;5093448;28;20070;-63
2022/06/07 10:07:40;;;;;;;2.80;1.10;;;;;;;;;;5093212;28;20492;-63
2022/06/07 10:10:15;;;;;;;2.45;1.02;;;;;;;;;;5093312;28;20090;-64
2022/06/07 10:12:41;;;;;;;1.60;0.93;;;;;;;;;;5092378;28;20093;-64
2022/06/07 10:15:10;;;;;;;2.22;1.10;;;;;;;;;;5092460;28;20119;-64
2022/06/07 10:17:50;;;;;;;2.10;0.98;;;;;;;;;;5093116;28;20062;-64
2022/06/07 10:20:22;;;;;;;2.65;1.10;;;;;;;;;;5093398;28;20032;-64
2022/06/07 10:22:49;;;;;;;2.63;0.90;;;;;;;;;;5092584;28;20036;-64
2022/06/07 10:25:18;;;;;;;1.95;0.98;;;;;;;;;;5093073;28;20462;-63
2022/06/07 10:27:50;;;;;;;1.45;1.10;;;;;;;;;;5092082;28;20077;-64
2022/06/07 10:30:16;;;;;;;3.67;1.10;;;;;;;;;;5092922;28;20028;-64
2022/06/07 10:32:53;;;;;;;4.72;1.40;;;;;;;;;;5092461;28;20035;-64
2022/06/07 10:35:39;;;;;;;2.03;1.00;;;;;;;;;;5089138;28;20035;-63
2022/06/07 10:38:29;;;;;;;2.90;1.10;;;;;;;;;;5090161;28;20457;-65
2022/06/07 10:41:08;;;;;;;1.55;0.98;;;;;;;;;;5090395;28;20404;-64
2022/06/07 10:43:45;;;;;;;3.97;1.30;;;;;;;;;;5091503;28;20044;-66
2022/06/07 10:46:14;;;;;;;4.72;1.10;;;;;;;;;;5091564;28;20068;-67
2022/06/07 10:48:54;;;;;;;2.03;1.05;;;;;;;;;;5088913;28;20427;-64
2022/06/07 10:54:16;;;;;;;5.35;1.00;;;;;;;;;;5090606;28;20097;-64
2022/06/07 10:56:45;;;;;;;5.53;1.30;;;;;;;;;;5092029;28;20039;-67
2022/06/07 10:59:17;;;;;;;2.55;1.20;;;;;;;;;;5093022;28;20032;-65
2022/06/07 11:01:48;;;;;;;8.85;1.15;;;;;;;;;;5093118;28;20040;-64
2022/06/07 11:10:06;;;;;;;1.52;1.10;;;;;;;;;;5097029;28;20039;-64
2022/06/07 11:12:38;;;;;;;7.05;1.30;;;;;;;;;;5096781;28;20039;-64
2022/06/07 11:15:22;;;;;;;4.82;1.00;;;;;;;;;;5096682;28;20039;-65
2022/06/07 11:17:50;;;;;;;1.80;1.15;;;;;;;;;;5096711;28;20038;-64
2022/06/07 11:20:25;;;;;;;2.50;1.02;;;;;;;;;;5096641;28;20038;-64
2022/06/07 11:22:57;;;;;;;1.63;1.20;;;;;;;;;;5096443;28;20111;-64
2022/06/07 11:25:38;;;;;;;3.78;1.10;;;;;;;;;;5096608;28;20036;-64
2022/06/07 11:28:21;;;;;;;5.80;1.20;;;;;;;;;;5096834;28;20035;-68
2022/06/07 11:30:48;;;;;;;1.70;1.00;;;;;;;;;;5096246;28;20078;-65
2022/06/07 11:33:26;;;;;;;3.55;1.10;;;;;;;;;;5096328;28;20082;-64
2022/06/07 11:36:04;;;;;;;1.48;0.90;;;;;;;;;;5096480;28;20036;-67
2022/06/07 11:38:31;;;;;;;2.08;1.00;;;;;;;;;;5096322;28;20109;-68
2022/06/07 11:44:03;;;;;;;3.05;1.00;;;;;;;;;;5096008;28;20027;-64
2022/06/07 11:46:35;;;;;;;2.08;1.00;;;;;;;;;;5096015;28;20048;-64
2022/06/07 11:52:04;;;;;;;3.80;0.90;;;;;;;;;;5095991;28;20024;-64
2022/06/07 11:54:33;;;;;;;4.38;1.00;;;;;;;;;;5095816;28;20064;-64
2022/06/07 11:57:18;;;;;;;4.18;0.93;;;;;;;;;;5095746;28;20119;-65
2022/06/07 11:59:45;;;;;;;3.17;0.90;;;;;;;;;;5095812;28;20449;-64
2022/06/07 12:02:21;;;;;;;1.98;1.10;;;;;;;;;;5096131;28;20377;-65
2022/06/07 12:04:48;;;;;;;1.02;0.85;;;;;;;;;;5095937;28;20036;-64
2022/06/07 12:07:35;;;;;;;4.25;0.90;;;;;;;;;;5095673;28;20043;-69
2022/06/07 12:10:18;;;;;;;3.20;1.27;;;;;;;;;;5095595;28;20036;-64
2022/06/07 12:12:54;;;;;;;2.38;0.90;;;;;;;;;;5094398;28;20029;-64
2022/06/07 12:15:21;;;;;;;4.95;0.90;;;;;;;;;;5094987;28;20472;-63
2022/06/07 12:17:53;;;;;;;2.05;1.02;;;;;;;;;;5095068;28;20028;-63
2022/06/07 12:20:23;;;;;;;0.98;0.80;;;;;;;;;;5094868;28;20028;-64
2022/06/07 12:22:50;;;;;;;3.90;1.15;;;;;;;;;;5094465;28;20040;-63
2022/06/07 12:25:21;;;;;;;2.58;1.00;;;;;;;;;;5094713;28;20093;-64
2022/06/07 12:27:56;;;;;;;1.90;0.95;;;;;;;;;;5094881;28;20024;-63
2022/06/07 12:30:24;;;;;;;1.80;0.90;;;;;;;;;;5095522;28;20039;-63
2022/06/07 12:32:51;;;;;;;2.72;1.15;;;;;;;;;;5094947;28;20024;-64
2022/06/07 12:35:19;;;;;;;2.05;1.45;;;;;;;;;;5094634;28;20524;-63
2022/06/07 12:37:47;;;;;;;5.50;1.30;;;;;;;;;;5095186;28;20080;-63
2022/06/07 12:40:26;;;;;;;2.17;1.20;;;;;;;;;;5094942;28;20028;-64
2022/06/07 12:42:52;;;;;;;4.32;1.70;;;;;;;;;;5094566;28;20044;-64
2022/06/07 12:45:21;;;;;;;3.10;1.30;;;;;;;;;;5094532;28;20036;-64
2022/06/07 12:47:53;;;;;;;3.85;1.00;;;;;;;;;;5094835;28;20070;-64
2022/06/07 12:50:39;;;;;;;2.10;1.20;;;;;;;;;;5094785;28;20085;-64
2022/06/07 12:53:06;;;;;;;2.00;1.30;;;;;;;;;;5094641;28;20036;-65
2022/06/07 12:55:34;;;;;;;2.40;1.25;;;;;;;;;;5093113;28;20039;-66
2022/06/07 12:58:02;;;;;;;4.85;1.35;;;;;;;;;;5093680;28;20040;-64
2022/06/07 13:00:31;;;;;;;2.50;1.33;;;;;;;;;;5091892;28;20044;-68
2022/06/07 13:03:00;;;;;;;7.50;1.42;;;;;;;;;;5093133;28;20043;-64
2022/06/07 13:05:29;;;;;;;2.85;1.30;;;;;;;;;;5092348;28;20105;-64
2022/06/07 13:07:57;;;;;;;2.15;1.20;;;;;;;;;;5094398;28;20060;-68
2022/06/07 13:10:27;;;;;;;2.20;1.13;;;;;;;;;;5094211;28;20044;-64
2022/06/07 13:12:54;;;;;;;3.10;1.50;;;;;;;;;;5093425;28;20055;-64
2022/06/07 13:15:26;;;;;;;5.32;1.40;;;;;;;;;;5094569;28;20028;-64
2022/06/07 13:18:04;;;;;;;2.35;1.58;;;;;;;;;;5094277;28;20115;-64
2022/06/07 13:20:30;;;;;;;1.67;1.20;;;;;;;;;;5093932;28;20447;-64
2022/06/07 13:22:57;;;;;;;6.70;1.20;;;;;;;;;;5093484;28;20055;-68
2022/06/07 13:25:27;;;;;;;3.92;1.20;;;;;;;;;;5092269;28;20044;-64
2022/06/07 13:27:58;;;;;;;8.10;1.20;;;;;;;;;;5093335;28;20036;-68
2022/06/07 13:30:26;;;;;;;3.08;1.20;;;;;;;;;;5094444;28;20063;-65
2022/06/07 13:33:07;;;;;;;3.90;1.50;;;;;;;;;;5093950;28;20060;-69
2022/06/07 13:35:40;;;;;;;2.42;1.10;;;;;;;;;;5093970;28;20114;-65
2022/06/07 13:38:20;;;;;;;2.28;1.20;;;;;;;;;;5093492;28;20052;-64
2022/06/07 13:40:46;;;;;;;2.45;1.17;;;;;;;;;;5093644;28;20028;-64
2022/06/07 13:43:13;;;;;;;4.22;1.42;;;;;;;;;;5093822;28;20036;-64
2022/06/07 13:45:44;;;;;;;2.78;1.35;;;;;;;;;;5093607;28;20536;-64
2022/06/07 13:48:16;;;;;;;2.90;1.60;;;;;;;;;;5093791;28;20028;-64
2022/06/07 13:53:53;;;;;;;5.43;1.60;;;;;;;;;;5093729;28;20444;-64
2022/06/07 13:56:21;;;;;;;4.70;1.27;;;;;;;;;;5093483;28;20471;-64
2022/06/07 13:58:52;;;;;;;3.17;1.20;;;;;;;;;;5093395;28;20028;-64
2022/06/07 14:01:23;;;;;;;2.95;1.50;;;;;;;;;;5093586;28;20552;-64
2022/06/07 14:03:53;;;;;;;1.75;1.20;;;;;;;;;;5093318;28;20047;-64
2022/06/07 14:06:21;;;;;;;13.93;2.85;;;;;;;;;;5093150;28;20043;-64
2022/06/07 14:08:47;;;;;;;4.18;2.03;;;;;;;;;;5093727;28;20036;-64
2022/06/07 14:11:14;;;;;;;4.10;1.52;;;;;;;;;;5093185;28;20020;-64
2022/06/07 14:13:40;;;;;;;4.05;1.50;;;;;;;;;;5093437;28;20412;-64
2022/06/07 14:16:06;;;;;;;7.43;1.30;;;;;;;;;;5092615;28;20024;-68
2022/06/07 14:18:33;;;;;;;4.88;1.40;;;;;;;;;;5093323;28;20082;-65
2022/06/07 14:20:59;;;;;;;3.13;1.33;;;;;;;;;;5092314;28;20040;-64
2022/06/07 14:23:25;;;;;;;5.97;1.80;;;;;;;;;;5093203;28;20080;-64
2022/06/07 14:25:51;;;;;;;3.55;1.38;;;;;;;;;;5093023;28;20396;-64
2022/06/07 14:28:22;;;;;;;6.78;1.55;;;;;;;;;;5093438;28;20024;-64
2022/06/07 14:30:53;;;;;;;5.78;1.65;;;;;;;;;;5091943;28;20036;-64
2022/06/07 14:33:20;;;;;;;5.57;1.40;;;;;;;;;;5091973;28;20082;-64
2022/06/07 14:35:47;;;;;;;4.13;1.55;;;;;;;;;;5092434;28;20036;-64
2022/06/07 14:38:15;;;;;;;5.32;1.40;;;;;;;;;;5097129;28;20131;-64
2022/06/07 14:40:42;;;;;;;9.93;2.45;;;;;;;;;;5098996;28;20067;-64
2022/06/07 14:43:09;;;;;;;3.60;1.50;;;;;;;;;;5099433;28;20040;-64
2022/06/07 14:45:43;;;;;;;4.43;1.60;;;;;;;;;;5099730;28;20092;-64
2022/06/07 14:48:15;;;;;;;5.65;1.70;;;;;;;;;;5099839;28;20089;-64
2022/06/07 14:50:41;;;;;;;3.60;1.55;;;;;;;;;;5100044;28;20032;-64
2022/06/07 14:53:09;;;;;;;6.53;1.80;;;;;;;;;;5099543;28;20036;-64
2022/06/07 14:55:35;;;;;;;8.18;1.70;;;;;;;;;;5099712;28;20062;-63
2022/06/07 14:58:01;;;;;;;6.18;1.63;;;;;;;;;;5099700;28;20392;-67
2022/06/07 15:00:27;;;;;;;3.22;1.80;;;;;;;;;;5099369;28;20432;-64
2022/06/07 15:02:55;;;;;;;5.32;1.90;;;;;;;;;;5099499;28;20032;-64
2022/06/07 15:05:24;;;;;;;8.98;2.15;;;;;;;;;;5099522;28;20043;-64
2022/06/07 15:07:53;;;;;;;7.53;1.85;;;;;;;;;;5099451;28;20036;-64
2022/06/07 15:10:21;;;;;;;4.25;1.73;;;;;;;;;;5099783;28;20461;-64
2022/06/07 15:12:47;;;;;;;9.18;1.90;;;;;;;;;;5099623;28;20081;-64
2022/06/07 15:15:13;;;;;;;4.28;2.15;;;;;;;;;;5099503;28;20488;-64
2022/06/07 15:17:42;;;;;;;12.10;2.25;;;;;;;;;;5099406;28;20136;-64
2022/06/07 15:20:16;;;;;;;4.35;1.70;;;;;;;;;;5099381;28;20109;-63
2022/06/07 15:22:42;;;;;;;8.68;2.30;;;;;;;;;;5099329;28;20028;-63
2022/06/07 15:25:14;;;;;;;7.07;2.17;;;;;;;;;;5099156;28;20036;-64